createdAt,value
2019-04-28T00:00:31.809Z,3.50
2019-04-28T00:01:43.226Z,3.00
2019-04-28T00:02:46.387Z,1.50
2019-04-28T00:03:49.102Z,3.00
2019-04-28T00:04:51.999Z,1.50
2019-04-28T00:05:56.816Z,3.00
2019-04-28T00:06:59.429Z,3.00
2019-04-28T00:08:02.134Z,1.00
2019-04-28T00:09:05.244Z,2.00
2019-04-28T00:10:11.025Z,0.75
2019-04-28T00:11:16.646Z,1.50
2019-04-28T00:12:21.063Z,2.00
2019-04-28T00:13:23.716Z,1.00
2019-04-28T00:14:26.998Z,3.00
2019-04-28T00:15:32.065Z,1.00
2019-04-28T00:16:34.698Z,1.00
2019-04-28T00:17:37.773Z,1.00
2019-04-28T00:18:41.533Z,3.00
2019-04-28T00:19:44.540Z,0.50
2019-04-28T00:21:21.727Z,3.00
2019-04-28T00:22:37.001Z,1.00
2019-04-28T00:23:52.015Z,3.00
2019-04-28T00:25:14.008Z,1.00
2019-04-28T00:26:48.628Z,1.00
2019-04-28T00:27:51.633Z,1.00
2019-04-28T00:28:54.716Z,1.00
2019-04-28T00:29:59.297Z,2.50
2019-04-28T00:31:03.081Z,1.50
2019-04-28T00:32:05.760Z,1.00
2019-04-28T00:33:08.687Z,3.00
2019-04-28T00:34:12.061Z,1.00
2019-04-28T00:35:15.118Z,3.00
2019-04-28T00:36:18.134Z,3.00
2019-04-28T00:37:32.249Z,2.50
2019-04-28T00:38:35.579Z,1.00
2019-04-28T00:39:42.135Z,3.00
2019-04-28T00:40:45.641Z,3.00
2019-04-28T00:41:49.199Z,3.00
2019-04-28T00:42:53.099Z,1.50
2019-04-28T00:43:55.792Z,3.00
2019-04-28T00:44:58.420Z,1.50
2019-04-28T00:46:01.685Z,3.00
2019-04-28T00:47:04.813Z,1.00
2019-04-28T00:48:07.446Z,1.50
2019-04-28T00:49:11.842Z,2.00
2019-04-28T00:50:14.733Z,5.50
2019-04-28T00:51:17.456Z,4.50
2019-04-28T00:52:22.080Z,3.00
2019-04-28T00:53:24.680Z,1.00
2019-04-28T00:54:27.316Z,1.00
2019-04-28T00:55:32.003Z,1.00
2019-04-28T00:56:34.731Z,2.00
2019-04-28T00:57:37.723Z,3.00
2019-04-28T00:58:41.675Z,3.00
2019-04-28T00:59:54.114Z,1.00
2019-04-28T01:00:51.362Z,3.00
2019-04-28T01:02:01.563Z,1.50
2019-04-28T01:03:04.186Z,3.50
2019-04-28T01:04:12.946Z,2.50
2019-04-28T01:05:18.144Z,1.50
2019-04-28T01:06:22.265Z,3.00
2019-04-28T01:07:25.262Z,1.00
2019-04-28T01:08:28.330Z,3.00
2019-04-28T01:09:31.588Z,3.00
2019-04-28T01:10:34.422Z,1.00
2019-04-28T01:11:37.180Z,1.00
2019-04-28T01:12:41.126Z,3.00
2019-04-28T01:13:43.881Z,2.00
2019-04-28T01:14:49.760Z,2.00
2019-04-28T01:16:01.868Z,1.50
2019-04-28T01:17:23.392Z,3.00
2019-04-28T01:18:40.334Z,3.00
2019-04-28T01:19:44.928Z,1.50
2019-04-28T01:20:49.500Z,3.00
2019-04-28T01:22:14.391Z,1.00
2019-04-28T01:23:20.349Z,1.00
2019-04-28T01:24:26.450Z,3.00
2019-04-28T01:25:40.182Z,4.50
2019-04-28T01:26:44.133Z,1.00
2019-04-28T01:27:57.391Z,1.00
2019-04-28T01:29:02.145Z,3.00
2019-04-28T01:30:11.288Z,1.00
2019-04-28T01:31:33.794Z,3.50
2019-04-28T01:32:49.837Z,1.50
2019-04-28T01:34:12.225Z,1.00
2019-04-28T01:35:39.645Z,1.00
2019-04-28T01:36:44.764Z,1.00
2019-04-28T01:37:53.766Z,3.00
2019-04-28T01:39:01.112Z,1.00
2019-04-28T01:40:22.707Z,1.00
2019-04-28T01:41:25.695Z,1.00
2019-04-28T01:42:30.101Z,1.00
2019-04-28T01:43:33.376Z,1.00
2019-04-28T01:44:36.141Z,2.50
2019-04-28T01:45:39.900Z,2.50
2019-04-28T01:46:43.191Z,1.00
2019-04-28T01:47:46.202Z,1.50
2019-04-28T01:48:49.737Z,1.00
2019-04-28T01:49:52.542Z,1.00
2019-04-28T01:50:55.563Z,1.00
2019-04-28T01:52:00.517Z,1.00
2019-04-28T01:53:02.916Z,1.00
2019-04-28T01:54:06.061Z,2.50
2019-04-28T01:55:10.159Z,1.00
2019-04-28T01:56:24.871Z,1.50
2019-04-28T01:57:27.623Z,1.00
2019-04-28T01:58:30.725Z,2.00
2019-04-28T01:59:33.389Z,1.00
2019-04-28T02:00:36.470Z,1.00
2019-04-28T02:01:40.046Z,1.00
2019-04-28T02:02:43.161Z,3.00
2019-04-28T02:03:45.951Z,1.50
2019-04-28T02:04:49.871Z,2.00
2019-04-28T02:05:52.821Z,1.00
2019-04-28T02:06:55.941Z,0.75
2019-04-28T02:08:00.911Z,0.75
2019-04-28T02:09:03.667Z,1.00
2019-04-28T02:10:06.405Z,0.75
2019-04-28T02:11:10.122Z,3.50
2019-04-28T02:12:12.925Z,3.00
2019-04-28T02:13:16.135Z,1.00
2019-04-28T02:14:19.592Z,1.00
2019-04-28T02:15:22.317Z,0.50
2019-04-28T02:16:25.056Z,1.00
2019-04-28T02:17:27.715Z,3.00
2019-04-28T02:18:30.474Z,1.00
2019-04-28T02:19:33.684Z,2.00
2019-04-28T02:20:37.187Z,1.50
2019-04-28T02:21:46.044Z,1.00
2019-04-28T02:23:01.812Z,1.50
2019-04-28T02:24:22.181Z,0.25
2019-04-28T02:25:25.267Z,0.75
2019-04-28T02:26:29.589Z,1.00
2019-04-28T02:27:32.415Z,0.75
2019-04-28T02:28:35.061Z,3.50
2019-04-28T02:29:41.487Z,2.00
2019-04-28T02:30:49.392Z,1.50
2019-04-28T02:31:46.905Z,1.50
2019-04-28T02:32:52.664Z,1.00
2019-04-28T02:33:55.307Z,1.00
2019-04-28T02:35:01.251Z,1.00
2019-04-28T02:36:03.193Z,1.00
2019-04-28T02:37:05.851Z,1.00
2019-04-28T02:38:11.354Z,1.00
2019-04-28T02:39:13.381Z,1.50
2019-04-28T02:40:16.119Z,3.00
2019-04-28T02:41:20.813Z,1.00
2019-04-28T02:42:26.211Z,1.00
2019-04-28T02:43:30.789Z,1.00
2019-04-28T02:44:34.963Z,1.50
2019-04-28T02:45:40.963Z,1.50
2019-04-28T02:46:42.384Z,1.00
2019-04-28T02:47:45.053Z,1.00
2019-04-28T02:48:53.491Z,1.00
2019-04-28T02:50:03.517Z,1.00
2019-04-28T02:51:13.587Z,1.00
2019-04-28T02:52:33.435Z,1.00
2019-04-28T02:53:40.861Z,1.00
2019-04-28T02:54:44.198Z,1.00
2019-04-28T02:55:47.055Z,1.00
2019-04-28T02:56:51.059Z,1.00
2019-04-28T02:57:54.197Z,1.00
2019-04-28T02:58:56.841Z,1.00
2019-04-28T03:00:00.422Z,1.00
2019-04-28T03:01:12.775Z,0.25
2019-04-28T03:02:10.377Z,3.00
2019-04-28T03:03:12.494Z,1.00
2019-04-28T03:04:15.539Z,4.00
2019-04-28T03:05:21.110Z,1.00
2019-04-28T03:06:22.731Z,1.00
2019-04-28T03:07:25.733Z,1.00
2019-04-28T03:08:30.569Z,1.00
2019-04-28T03:09:33.121Z,1.00
2019-04-28T03:10:36.285Z,0.50
2019-04-28T03:11:42.756Z,1.00
2019-04-28T03:12:43.731Z,1.50
2019-04-28T03:13:46.384Z,1.00
2019-04-28T03:14:50.607Z,1.00
2019-04-28T03:15:53.447Z,1.00
2019-04-28T03:16:56.563Z,1.00
2019-04-28T03:18:01.797Z,0.25
2019-04-28T03:19:04.173Z,1.00
2019-04-28T03:20:06.809Z,1.00
2019-04-28T03:21:11.423Z,1.00
2019-04-28T03:22:14.436Z,1.50
2019-04-28T03:23:20.450Z,2.50
2019-04-28T03:24:22.934Z,1.50
2019-04-28T03:25:36.603Z,1.00
2019-04-28T03:26:45.670Z,1.00
2019-04-28T03:28:05.765Z,1.00
2019-04-28T03:29:25.585Z,1.00
2019-04-28T03:30:45.594Z,1.00
2019-04-28T03:32:22.770Z,1.50
2019-04-28T03:33:11.814Z,1.00
2019-04-28T03:34:12.978Z,0.50
2019-04-28T03:35:13.828Z,1.00
2019-04-28T03:36:16.998Z,1.50
2019-04-28T03:37:23.547Z,0.75
2019-04-28T03:38:24.427Z,1.00
2019-04-28T03:39:27.062Z,3.00
2019-04-28T03:40:30.955Z,1.00
2019-04-28T03:41:34.175Z,1.00
2019-04-28T03:42:37.332Z,1.00
2019-04-28T03:43:40.714Z,1.00
2019-04-28T03:44:43.633Z,1.00
2019-04-28T03:45:51.923Z,1.00
2019-04-28T03:46:55.660Z,1.00
2019-04-28T03:48:00.301Z,3.00
2019-04-28T03:49:03.418Z,1.00
2019-04-28T03:50:06.186Z,1.00
2019-04-28T03:51:12.962Z,1.00
2019-04-28T03:52:15.147Z,0.00
2019-04-28T03:53:17.871Z,1.00
2019-04-28T03:54:20.932Z,1.00
2019-04-28T03:55:23.601Z,1.00
2019-04-28T03:56:26.426Z,1.00
2019-04-28T03:57:31.460Z,3.00
2019-04-28T03:58:33.899Z,1.00
2019-04-28T03:59:37.035Z,1.00
2019-04-28T04:00:41.002Z,1.50
2019-04-28T04:01:55.270Z,1.50
2019-04-28T04:02:50.717Z,1.00
2019-04-28T04:03:52.887Z,1.00
2019-04-28T04:04:55.567Z,1.00
2019-04-28T04:06:02.949Z,1.00
2019-04-28T04:07:06.158Z,1.00
2019-04-28T04:08:10.976Z,4.00
2019-04-28T04:09:13.224Z,1.00
2019-04-28T04:10:24.915Z,1.00
2019-04-28T04:11:41.609Z,1.00
2019-04-28T04:14:31.065Z,1.00
2019-04-28T04:15:54.140Z,1.50
2019-04-28T04:17:12.866Z,1.50
2019-04-28T04:18:21.060Z,1.00
2019-04-28T04:19:23.601Z,1.50
2019-04-28T04:20:26.271Z,1.00
2019-04-28T04:21:31.039Z,1.00
2019-04-28T04:22:33.999Z,1.00
2019-04-28T04:23:36.656Z,2.50
2019-04-28T04:24:40.408Z,2.00
2019-04-28T04:25:43.644Z,1.00
2019-04-28T04:26:46.397Z,1.50
2019-04-28T04:27:50.183Z,1.00
2019-04-28T04:28:53.244Z,3.00
2019-04-28T04:29:56.533Z,1.00
2019-04-28T04:31:02.431Z,1.00
2019-04-28T04:32:15.772Z,1.00
2019-04-28T04:33:11.110Z,1.00
2019-04-28T04:34:12.932Z,1.00
2019-04-28T04:35:16.221Z,1.00
2019-04-28T04:36:21.123Z,1.00
2019-04-28T04:37:23.418Z,3.00
2019-04-28T04:38:27.997Z,1.00
2019-04-28T04:39:30.802Z,2.00
2019-04-28T04:40:33.531Z,1.00
2019-04-28T04:41:36.841Z,1.00
2019-04-28T04:42:40.428Z,1.00
2019-04-28T04:43:43.273Z,1.50
2019-04-28T04:44:46.486Z,1.00
2019-04-28T04:45:50.828Z,1.00
2019-04-28T04:46:53.752Z,1.00
2019-04-28T04:47:56.645Z,1.00
2019-04-28T04:49:00.695Z,1.50
2019-04-28T04:50:03.702Z,1.00
2019-04-28T04:53:05.459Z,1.00
2019-04-28T04:54:10.609Z,3.00
2019-04-28T04:55:12.969Z,2.50
2019-04-28T04:56:15.643Z,3.00
2019-04-28T04:57:20.730Z,1.00
2019-04-28T04:58:23.977Z,1.00
2019-04-28T04:59:27.227Z,1.00
2019-04-28T05:00:43.263Z,1.00
2019-04-28T05:02:26.485Z,1.00
2019-04-28T05:03:24.710Z,1.00
2019-04-28T05:04:52.077Z,1.00
2019-04-28T05:05:54.738Z,1.00
2019-04-28T05:06:57.442Z,1.00
2019-04-28T05:08:00.453Z,0.00
2019-04-28T05:09:04.268Z,1.00
2019-04-28T05:10:07.273Z,1.00
2019-04-28T05:11:11.317Z,1.00
2019-04-28T05:12:14.058Z,1.00
2019-04-28T05:13:16.762Z,2.50
2019-04-28T05:15:59.800Z,2.00
2019-04-28T05:17:02.548Z,0.50
2019-04-28T05:18:05.212Z,1.50
2019-04-28T05:19:10.146Z,1.50
2019-04-28T05:20:12.721Z,1.00
2019-04-28T05:21:15.458Z,1.00
2019-04-28T05:22:20.558Z,1.00
2019-04-28T05:23:39.871Z,1.00
2019-04-28T05:24:57.215Z,2.00
2019-04-28T05:26:01.625Z,1.00
2019-04-28T05:27:09.834Z,2.00
2019-04-28T05:28:12.597Z,1.00
2019-04-28T05:29:21.839Z,2.50
2019-04-28T05:44:02.211Z,2.00
2019-04-28T05:45:04.939Z,3.00
2019-04-28T05:46:07.833Z,3.00
2019-04-28T05:47:10.472Z,2.00
2019-04-28T05:48:16.011Z,4.50
2019-04-28T05:49:44.130Z,2.00
2019-04-28T05:50:52.735Z,1.50
2019-04-28T05:52:00.692Z,1.00
2019-04-28T05:53:30.076Z,1.00
2019-04-28T05:54:45.019Z,0.75
2019-04-28T05:56:00.991Z,2.50
2019-04-28T05:57:26.050Z,1.00
2019-04-28T05:58:42.804Z,2.00
2019-04-28T06:00:03.753Z,2.50
2019-04-28T06:01:25.273Z,1.00
2019-04-28T06:02:31.832Z,3.00
2019-04-28T06:03:34.557Z,1.00
2019-04-28T06:04:55.181Z,2.00
2019-04-28T06:05:59.830Z,1.00
2019-04-28T06:07:15.649Z,3.00
2019-04-28T06:08:26.826Z,1.00
2019-04-28T06:09:36.864Z,3.00
2019-04-28T06:10:41.933Z,1.00
2019-04-28T06:11:44.605Z,1.50
2019-04-28T06:12:50.289Z,1.00
2019-04-28T06:13:53.236Z,3.00
2019-04-28T06:14:55.882Z,3.00
2019-04-28T06:15:59.873Z,1.00
2019-04-28T06:17:04.198Z,3.00
2019-04-28T06:18:07.415Z,3.00
2019-04-28T06:19:12.882Z,1.00
2019-04-28T06:20:19.992Z,1.00
2019-04-28T06:21:22.950Z,1.00
2019-04-28T06:22:25.597Z,1.00
2019-04-28T06:23:28.633Z,2.00
2019-04-28T06:24:31.811Z,2.00
2019-04-28T06:25:35.220Z,0.75
2019-04-28T06:26:38.235Z,1.50
2019-04-28T06:27:41.928Z,2.00
2019-04-28T06:28:48.496Z,2.50
2019-04-28T06:29:51.324Z,1.50
2019-04-28T06:30:54.411Z,2.50
2019-04-28T06:31:57.127Z,1.00
2019-04-28T06:33:07.466Z,1.00
2019-04-28T06:34:04.459Z,2.00
2019-04-28T06:35:07.210Z,1.00
2019-04-28T06:36:09.922Z,1.00
2019-04-28T06:37:12.642Z,2.00
2019-04-28T06:38:15.375Z,1.00
2019-04-28T06:39:18.321Z,1.00
2019-04-28T06:40:22.185Z,2.00
2019-04-28T06:41:24.813Z,1.00
2019-04-28T06:42:27.472Z,1.00
2019-04-28T06:43:30.188Z,1.00
2019-04-28T06:44:32.846Z,1.50
2019-04-28T06:45:35.860Z,3.00
2019-04-28T06:46:38.518Z,3.00
2019-04-28T06:47:41.217Z,1.00
2019-04-28T06:48:46.543Z,2.50
2019-04-28T06:49:49.195Z,3.00
2019-04-28T06:50:51.932Z,3.00
2019-04-28T06:51:55.384Z,5.00
2019-04-28T06:53:02.879Z,2.00
2019-04-28T06:54:12.836Z,3.00
2019-04-28T06:55:15.513Z,4.00
2019-04-28T06:56:18.164Z,3.00
2019-04-28T06:57:23.164Z,1.00
2019-04-28T06:58:26.219Z,3.00
2019-04-28T06:59:28.918Z,3.50
2019-04-28T07:00:32.563Z,1.00
2019-04-28T07:01:35.270Z,2.50
2019-04-28T07:02:37.940Z,1.00
2019-04-28T07:03:40.573Z,3.00
2019-04-28T07:04:46.390Z,1.50
2019-04-28T07:05:53.196Z,3.00
2019-04-28T07:07:03.097Z,1.50
2019-04-28T07:08:06.458Z,5.50
2019-04-28T07:09:14.719Z,1.50
2019-04-28T07:10:17.730Z,3.00
2019-04-28T07:11:20.844Z,1.00
2019-04-28T07:12:23.578Z,2.50
2019-04-28T07:13:26.489Z,3.00
2019-04-28T07:14:29.161Z,3.00
2019-04-28T07:15:34.799Z,1.00
2019-04-28T07:16:39.120Z,1.00
2019-04-28T07:17:47.967Z,3.00
2019-04-28T07:18:51.136Z,1.00
2019-04-28T07:20:02.459Z,5.00
2019-04-28T07:21:38.960Z,3.00
2019-04-28T07:22:44.624Z,3.00
2019-04-28T07:23:48.233Z,3.00
2019-04-28T07:24:51.275Z,3.00
2019-04-28T07:25:54.033Z,3.00
2019-04-28T07:26:56.781Z,3.00
2019-04-28T07:27:59.454Z,1.50
2019-04-28T07:29:02.178Z,2.50
2019-04-28T07:30:08.058Z,3.00
2019-04-28T07:31:10.770Z,3.00
2019-04-28T07:32:13.437Z,2.00
2019-04-28T07:33:16.577Z,3.00
2019-04-28T07:34:19.363Z,3.00
2019-04-28T07:35:22.375Z,3.00
2019-04-28T07:36:25.022Z,2.00
2019-04-28T07:37:27.742Z,3.00
2019-04-28T07:38:30.742Z,3.00
2019-04-28T07:39:33.457Z,3.00
2019-04-28T07:40:36.090Z,1.00
2019-04-28T07:41:40.343Z,3.00
2019-04-28T07:42:43.092Z,2.50
2019-04-28T07:43:45.836Z,3.00
2019-04-28T07:44:48.537Z,3.00
2019-04-28T07:45:54.267Z,3.00
2019-04-28T07:46:59.746Z,3.00
2019-04-28T07:48:04.299Z,1.00
2019-04-28T07:49:07.075Z,3.00
2019-04-28T07:50:11.640Z,3.50
2019-04-28T07:51:17.419Z,5.00
2019-04-28T07:52:40.219Z,4.00
2019-04-28T07:54:04.841Z,5.00
2019-04-28T07:55:07.043Z,3.00
2019-04-28T07:56:12.607Z,4.00
2019-04-28T07:57:15.670Z,4.00
2019-04-28T07:58:18.399Z,3.00
2019-04-28T07:59:21.059Z,3.00
2019-04-28T08:00:28.572Z,4.00
2019-04-28T08:01:34.203Z,3.50
2019-04-28T08:02:37.344Z,3.00
2019-04-28T08:03:49.268Z,4.00
2019-04-28T08:04:46.253Z,2.00
2019-04-28T08:05:51.487Z,2.50
2019-04-28T08:06:57.322Z,3.00
2019-04-28T08:08:00.133Z,5.00
2019-04-28T08:09:02.908Z,3.00
2019-04-28T08:10:05.579Z,3.00
2019-04-28T08:11:08.304Z,1.50
2019-04-28T08:12:11.044Z,2.00
2019-04-28T08:13:14.086Z,3.50
2019-04-28T08:14:19.561Z,3.00
2019-04-28T08:15:21.089Z,3.00
2019-04-28T08:16:23.754Z,3.00
2019-04-28T08:17:27.842Z,4.50
2019-04-28T08:18:31.698Z,1.50
2019-04-28T08:19:34.801Z,3.00
2019-04-28T08:20:37.619Z,6.00
2019-04-28T08:21:40.260Z,3.00
2019-04-28T08:22:42.979Z,3.00
2019-04-28T08:23:47.272Z,3.50
2019-04-28T08:24:50.163Z,5.00
2019-04-28T08:25:53.319Z,4.50
2019-04-28T08:26:56.021Z,3.00
2019-04-28T08:27:59.090Z,5.00
2019-04-28T08:29:04.102Z,5.00
2019-04-28T08:30:06.770Z,3.00
2019-04-28T08:31:13.571Z,5.00
2019-04-28T08:32:41.599Z,5.00
2019-04-28T08:34:02.166Z,3.00
2019-04-28T08:34:59.043Z,3.00
2019-04-28T08:36:02.112Z,5.00
2019-04-28T08:37:05.411Z,4.00
2019-04-28T08:38:08.904Z,5.00
2019-04-28T08:39:12.180Z,5.00
2019-04-28T08:40:14.914Z,2.00
2019-04-28T08:41:18.194Z,5.00
2019-04-28T08:42:20.857Z,5.00
2019-04-28T08:43:24.172Z,5.00
2019-04-28T08:44:26.833Z,4.00
2019-04-28T08:45:29.855Z,4.00
2019-04-28T08:46:32.683Z,4.50
2019-04-28T08:47:35.613Z,6.00
2019-04-28T08:48:38.257Z,3.50
2019-04-28T08:49:40.907Z,5.00
2019-04-28T08:50:43.597Z,5.50
2019-04-28T08:51:47.219Z,5.00
2019-04-28T08:52:50.730Z,5.00
2019-04-28T08:53:53.904Z,5.00
2019-04-28T08:54:57.060Z,5.00
2019-04-28T08:56:00.390Z,3.00
2019-04-28T08:57:03.290Z,5.50
2019-04-28T08:58:08.138Z,3.00
2019-04-28T08:59:11.043Z,4.50
2019-04-28T09:00:17.322Z,6.00
2019-04-28T09:01:20.356Z,3.00
2019-04-28T09:02:23.319Z,3.00
2019-04-28T09:03:26.436Z,3.00
2019-04-28T09:04:29.429Z,4.00
2019-04-28T09:05:32.121Z,3.00
2019-04-28T09:06:35.201Z,3.00
2019-04-28T09:07:38.360Z,5.50
2019-04-28T09:08:41.596Z,5.00
2019-04-28T09:09:44.452Z,3.50
2019-04-28T09:10:47.675Z,5.00
2019-04-28T09:11:50.491Z,5.00
2019-04-28T09:12:55.231Z,5.00
2019-04-28T09:14:01.063Z,3.00
2019-04-28T09:15:04.124Z,3.00
2019-04-28T09:16:07.364Z,3.00
2019-04-28T09:17:10.610Z,5.00
2019-04-28T09:18:13.583Z,5.00
2019-04-28T09:19:17.821Z,7.00
2019-04-28T09:20:20.641Z,6.50
2019-04-28T09:21:27.733Z,5.00
2019-04-28T09:22:32.118Z,4.50
2019-04-28T09:23:59.002Z,3.00
2019-04-28T09:25:02.824Z,7.00
2019-04-28T09:26:05.642Z,3.50
2019-04-28T09:27:14.595Z,5.00
2019-04-28T09:28:23.592Z,5.00
2019-04-28T09:29:26.831Z,4.00
2019-04-28T09:30:29.948Z,3.00
2019-04-28T09:31:32.835Z,6.75
2019-04-28T09:32:36.227Z,7.00
2019-04-28T09:33:39.446Z,6.00
2019-04-28T09:34:42.679Z,4.50
2019-04-28T09:35:47.996Z,3.00
2019-04-28T09:36:51.531Z,4.50
2019-04-28T09:37:54.609Z,5.00
2019-04-28T09:38:57.648Z,4.00
2019-04-28T09:40:08.359Z,5.00
2019-04-28T09:41:11.151Z,3.00
2019-04-28T09:42:31.651Z,4.00
2019-04-28T09:43:51.695Z,5.00
2019-04-28T09:44:55.239Z,5.50
2019-04-28T09:46:04.526Z,3.00
2019-04-28T09:47:07.342Z,4.50
2019-04-28T09:48:10.335Z,5.00
2019-04-28T09:49:13.835Z,3.00
2019-04-28T09:50:20.695Z,5.00
2019-04-28T09:51:23.528Z,3.50
2019-04-28T09:52:26.514Z,5.00
2019-04-28T09:53:29.195Z,5.00
2019-04-28T09:54:32.078Z,6.25
2019-04-28T09:55:35.094Z,5.00
2019-04-28T09:56:37.940Z,5.00
2019-04-28T09:57:40.778Z,3.50
2019-04-28T09:58:43.534Z,3.00
2019-04-28T09:59:46.287Z,5.00
2019-04-28T10:00:49.163Z,5.00
2019-04-28T10:01:52.149Z,5.00
2019-04-28T10:02:54.876Z,4.00
2019-04-28T10:03:58.029Z,5.00
2019-04-28T10:05:00.784Z,4.50
2019-04-28T10:06:04.151Z,5.00
2019-04-28T10:07:07.028Z,5.00
2019-04-28T10:08:10.470Z,5.00
2019-04-28T10:09:13.946Z,4.50
2019-04-28T10:10:17.046Z,4.00
2019-04-28T10:11:29.961Z,5.75
2019-04-28T10:12:29.239Z,5.00
2019-04-28T10:13:32.125Z,5.50
2019-04-28T10:14:35.798Z,6.00
2019-04-28T10:15:38.621Z,5.50
2019-04-28T10:16:42.315Z,5.00
2019-04-28T10:17:47.386Z,5.00
2019-04-28T10:18:53.358Z,5.00
2019-04-28T10:19:56.177Z,4.50
2019-04-28T10:21:02.137Z,4.75
2019-04-28T10:22:08.920Z,3.25
2019-04-28T10:23:11.791Z,5.25
2019-04-28T10:24:14.833Z,4.75
2019-04-28T10:25:17.686Z,3.75
2019-04-28T10:26:20.626Z,4.00
2019-04-28T10:27:23.658Z,3.00
2019-04-28T10:28:26.398Z,3.00
2019-04-28T10:29:29.197Z,3.75
2019-04-28T10:43:02.497Z,4.00
2019-04-28T10:44:05.452Z,5.50
2019-04-28T10:45:11.046Z,4.25
2019-04-28T10:46:16.521Z,3.25
2019-04-28T10:47:20.098Z,3.25
2019-04-28T10:48:23.498Z,3.25
2019-04-28T10:49:26.240Z,3.25
2019-04-28T10:50:29.959Z,3.75
2019-04-28T10:51:33.082Z,6.00
2019-04-28T10:52:35.769Z,3.75
2019-04-28T10:53:41.714Z,4.00
2019-04-28T10:54:45.270Z,4.00
2019-04-28T10:55:48.428Z,3.00
2019-04-28T10:56:51.147Z,3.00
2019-04-28T10:57:53.923Z,3.00
2019-04-28T10:58:57.151Z,4.00
2019-04-28T11:00:00.102Z,4.00
2019-04-28T11:01:03.692Z,3.25
2019-04-28T11:02:06.867Z,4.00
2019-04-28T11:03:10.688Z,3.00
2019-04-28T11:04:30.936Z,3.25
2019-04-28T11:05:40.626Z,3.00
2019-04-28T11:06:51.152Z,4.25
2019-04-28T11:07:54.929Z,4.75
2019-04-28T11:09:15.650Z,1.50
2019-04-28T11:10:19.923Z,5.00
2019-04-28T11:11:26.373Z,3.00
2019-04-28T11:12:29.940Z,3.25
2019-04-28T11:13:36.812Z,4.00
2019-04-28T11:14:44.386Z,3.50
2019-04-28T11:16:01.422Z,3.00
2019-04-28T11:17:05.832Z,3.00
2019-04-28T11:18:13.603Z,1.00
2019-04-28T11:19:23.227Z,3.25
2019-04-28T11:20:29.537Z,3.00
2019-04-28T11:21:34.459Z,4.00
2019-04-28T11:22:36.783Z,3.00
2019-04-28T11:23:41.895Z,3.00
2019-04-28T11:24:44.822Z,3.25
2019-04-28T11:25:47.825Z,3.50
2019-04-28T11:26:55.195Z,4.00
2019-04-28T11:27:57.993Z,3.00
2019-04-28T11:29:00.682Z,2.50
2019-04-28T11:30:03.586Z,4.00
2019-04-28T11:31:06.804Z,3.75
2019-04-28T11:32:09.816Z,4.50
2019-04-28T11:33:31.889Z,3.75
2019-04-28T11:34:50.027Z,3.00
2019-04-28T11:35:52.870Z,3.00
2019-04-28T11:36:58.826Z,3.00
2019-04-28T11:38:01.964Z,4.50
2019-04-28T11:39:05.544Z,3.00
2019-04-28T11:40:13.921Z,3.50
2019-04-28T11:41:18.670Z,4.00
2019-04-28T11:42:22.315Z,5.25
2019-04-28T11:43:25.835Z,3.00
2019-04-28T11:44:31.082Z,3.00
2019-04-28T11:45:35.056Z,5.00
2019-04-28T11:46:38.006Z,4.00
2019-04-28T11:47:41.009Z,6.50
2019-04-28T11:48:44.003Z,5.50
2019-04-28T11:49:46.823Z,7.50
2019-04-28T11:50:49.509Z,4.50
2019-04-28T11:51:52.185Z,3.00
2019-04-28T11:52:55.191Z,3.00
2019-04-28T11:54:00.500Z,3.00
2019-04-28T11:55:06.500Z,1.00
2019-04-28T11:56:12.115Z,1.00
2019-04-28T11:57:15.801Z,3.00
2019-04-28T11:58:18.692Z,1.00
2019-04-28T11:59:30.120Z,3.00
2019-04-28T12:00:34.467Z,1.50
2019-04-28T12:01:37.770Z,1.00
2019-04-28T12:02:40.562Z,2.00
2019-04-28T12:03:44.372Z,1.50
2019-04-28T12:04:47.115Z,3.00
2019-04-28T12:05:50.375Z,1.50
2019-04-28T12:06:58.885Z,4.00
2019-04-28T12:08:01.868Z,1.00
2019-04-28T12:09:19.988Z,3.00
2019-04-28T12:10:30.143Z,3.00
2019-04-28T12:11:35.365Z,2.50
2019-04-28T12:13:02.221Z,3.00
2019-04-28T12:14:32.475Z,3.00
2019-04-28T12:15:56.982Z,4.00
2019-04-28T12:17:21.748Z,4.00
2019-04-28T12:18:52.597Z,3.00
2019-04-28T12:20:14.233Z,1.00
2019-04-28T12:21:20.292Z,3.00
2019-04-28T12:22:28.063Z,5.00
2019-04-28T12:23:33.014Z,2.50
2019-04-28T12:24:36.091Z,3.00
2019-04-28T12:25:39.438Z,3.00
2019-04-28T12:27:03.866Z,1.50
2019-04-28T12:28:11.312Z,3.00
2019-04-28T12:29:14.615Z,2.00
2019-04-28T12:30:23.301Z,3.00
2019-04-28T12:31:26.133Z,3.00
2019-04-28T12:32:31.927Z,3.00
2019-04-28T12:33:40.874Z,3.00
2019-04-28T12:34:41.810Z,3.00
2019-04-28T12:35:47.871Z,3.00
2019-04-28T12:36:52.945Z,3.00
2019-04-28T12:37:55.675Z,3.00
2019-04-28T12:38:59.032Z,2.75
2019-04-28T12:40:04.099Z,3.00
2019-04-28T12:41:17.509Z,3.00
2019-04-28T12:42:11.686Z,3.25
2019-04-28T12:43:19.460Z,2.50
2019-04-28T12:44:22.231Z,3.00
2019-04-28T12:45:34.897Z,3.00
2019-04-28T12:46:31.906Z,4.00
2019-04-28T12:47:34.923Z,3.00
2019-04-28T12:48:37.777Z,3.00
2019-04-28T12:50:00.948Z,3.75
2019-04-28T12:51:04.009Z,3.00
2019-04-28T12:52:10.152Z,3.00
2019-04-28T12:53:14.830Z,3.25
2019-04-28T12:54:19.460Z,3.00
2019-04-28T12:55:23.138Z,3.25
2019-04-28T12:56:26.339Z,3.00
2019-04-28T12:57:29.566Z,4.00
2019-04-28T12:58:32.455Z,3.50
2019-04-28T12:59:44.468Z,3.75
2019-04-28T13:01:17.477Z,3.00
2019-04-28T13:02:38.760Z,3.00
2019-04-28T13:04:01.365Z,3.00
2019-04-28T13:05:09.224Z,4.00
2019-04-28T13:06:17.628Z,1.00
2019-04-28T13:07:20.364Z,2.50
2019-04-28T13:08:26.959Z,3.00
2019-04-28T13:09:29.689Z,2.50
2019-04-28T13:10:32.883Z,3.00
2019-04-28T13:11:36.726Z,1.50
2019-04-28T13:12:43.988Z,1.00
2019-04-28T13:13:49.842Z,1.00
2019-04-28T13:14:54.865Z,3.00
2019-04-28T13:16:00.336Z,3.00
2019-04-28T13:17:06.207Z,3.00
2019-04-28T13:18:09.547Z,1.50
2019-04-28T13:19:12.886Z,1.50
2019-04-28T13:20:17.154Z,1.00
2019-04-28T13:21:26.028Z,1.00
2019-04-28T13:22:30.406Z,1.00
2019-04-28T13:23:33.419Z,3.00
2019-04-28T13:24:39.563Z,3.00
2019-04-28T13:25:42.336Z,3.00
2019-04-28T13:26:48.130Z,3.00
2019-04-28T13:27:54.385Z,3.00
2019-04-28T13:28:59.392Z,3.00
2019-04-28T13:30:03.452Z,3.00
2019-04-28T13:31:06.559Z,3.00
2019-04-28T13:32:09.943Z,3.00
2019-04-28T13:33:12.685Z,1.50
2019-04-28T13:34:22.923Z,1.00
2019-04-28T13:35:28.244Z,1.00
2019-04-28T13:36:32.135Z,1.00
2019-04-28T13:37:39.785Z,1.00
2019-04-28T13:38:42.443Z,1.00
2019-04-28T13:39:52.251Z,0.00
2019-04-28T13:40:54.981Z,1.00
2019-04-28T13:41:57.846Z,1.00
2019-04-28T13:43:04.440Z,1.50
2019-04-28T13:44:10.321Z,1.00
2019-04-28T13:45:18.532Z,1.00
2019-04-28T13:46:24.473Z,0.25
2019-04-28T13:47:27.239Z,1.00
2019-04-28T13:48:29.957Z,1.00
2019-04-28T13:49:49.559Z,0.50
2019-04-28T13:50:52.268Z,1.00
2019-04-28T13:51:56.825Z,0.00
2019-04-28T13:52:59.598Z,0.50
2019-04-28T13:54:04.396Z,1.00
2019-04-28T13:55:22.464Z,0.25
2019-04-28T13:56:25.276Z,1.00
2019-04-28T13:57:28.314Z,1.00
2019-04-28T13:58:32.837Z,1.00
2019-04-28T13:59:35.711Z,1.00
2019-04-28T14:01:07.370Z,1.00
2019-04-28T14:02:29.251Z,1.00
2019-04-28T14:03:40.476Z,2.00
2019-04-28T14:05:01.315Z,1.00
2019-04-28T14:06:11.301Z,1.00
2019-04-28T14:07:14.471Z,1.00
2019-04-28T14:08:17.152Z,1.00
2019-04-28T14:09:22.114Z,1.00
2019-04-28T14:10:25.192Z,3.00
2019-04-28T14:11:29.269Z,3.00
2019-04-28T14:12:32.591Z,1.00
2019-04-28T14:13:38.145Z,1.00
2019-04-28T14:14:43.566Z,2.50
2019-04-28T14:15:48.449Z,1.00
2019-04-28T14:16:50.977Z,3.00
2019-04-28T14:17:53.676Z,3.00
2019-04-28T14:18:58.925Z,2.50
2019-04-28T14:20:01.665Z,1.00
2019-04-28T14:21:07.719Z,3.00
2019-04-28T14:22:09.248Z,1.00
2019-04-28T14:23:15.020Z,1.00
2019-04-28T14:24:18.140Z,2.50
2019-04-28T14:25:29.285Z,3.00
2019-04-28T14:26:33.530Z,3.00
2019-04-28T14:27:38.186Z,2.50
2019-04-28T14:28:43.130Z,2.50
2019-04-28T14:29:45.815Z,3.00
2019-04-28T14:30:49.015Z,3.00
2019-04-28T14:31:53.043Z,3.00
2019-04-28T14:32:58.888Z,2.50
2019-04-28T14:34:01.681Z,3.00
2019-04-28T14:35:04.560Z,2.50
2019-04-28T14:36:08.636Z,1.00
2019-04-28T14:37:11.550Z,1.00
2019-04-28T14:38:20.543Z,1.00
2019-04-28T14:39:23.765Z,1.00
2019-04-28T14:40:26.739Z,3.00
2019-04-28T14:41:29.409Z,3.00
2019-04-28T14:42:32.087Z,1.00
2019-04-28T14:43:34.812Z,1.00
2019-04-28T14:44:37.878Z,2.00
2019-04-28T14:45:40.582Z,2.50
2019-04-28T14:46:43.310Z,2.00
2019-04-28T14:47:47.953Z,3.00
2019-04-28T14:48:50.703Z,3.00
2019-04-28T14:49:57.811Z,3.00
2019-04-28T14:51:01.165Z,3.00
2019-04-28T14:52:04.111Z,2.50
2019-04-28T14:53:09.262Z,3.75
2019-04-28T14:54:31.457Z,3.00
2019-04-28T14:55:37.230Z,1.00
2019-04-28T14:56:39.931Z,3.00
2019-04-28T14:57:45.900Z,3.00
2019-04-28T14:58:49.548Z,3.00
2019-04-28T14:59:52.277Z,1.00
2019-04-28T15:00:59.604Z,3.25
2019-04-28T15:02:28.880Z,3.00
2019-04-28T15:03:36.587Z,0.50
2019-04-28T15:04:56.578Z,3.00
2019-04-28T15:06:30.373Z,1.50
2019-04-28T15:07:57.897Z,1.00